createdAt,value
2023-04-25T00:01:50.847Z,67.65
2023-04-25T00:04:37.846Z,67.94
2023-04-25T00:07:25.375Z,67.96
2023-04-25T00:10:12.303Z,68.30
2023-04-25T00:12:59.326Z,68.29
2023-04-25T00:15:46.192Z,68.17
2023-04-25T00:18:33.308Z,68.57
2023-04-25T00:21:20.271Z,68.79
2023-04-25T00:24:07.891Z,69.03
2023-04-25T00:26:55.998Z,69.21
2023-04-25T00:29:42.995Z,69.29
2023-04-25T00:32:29.926Z,69.34
2023-04-25T00:35:17.877Z,69.11
2023-04-25T00:38:04.908Z,69.41
2023-04-25T00:40:52.022Z,69.68
2023-04-25T00:43:38.968Z,69.77
2023-04-25T00:46:26.251Z,69.29
2023-04-25T00:49:13.102Z,69.50
2023-04-25T00:52:00.264Z,69.32
2023-04-25T00:54:47.181Z,70.00
2023-04-25T00:57:34.453Z,70.19
2023-04-25T01:00:21.944Z,69.81
2023-04-25T01:03:09.446Z,69.61
2023-04-25T01:05:56.516Z,70.06
2023-04-25T01:08:45.582Z,69.98
2023-04-25T01:11:32.492Z,70.04
2023-04-25T01:14:19.618Z,70.72
2023-04-25T01:17:07.488Z,70.01
2023-04-25T01:19:55.386Z,70.84
2023-04-25T01:22:42.631Z,70.41
2023-04-25T01:25:30.174Z,70.29
2023-04-25T01:28:18.833Z,71.13
2023-04-25T01:31:06.208Z,70.94
2023-04-25T01:33:53.661Z,71.07
2023-04-25T01:36:42.611Z,71.23
2023-04-25T01:39:30.101Z,71.25
2023-04-25T01:42:17.892Z,70.79
2023-04-25T01:45:04.855Z,70.99
2023-04-25T01:47:51.994Z,71.02
2023-04-25T01:50:40.127Z,71.05
2023-04-25T01:53:27.331Z,71.95
2023-04-25T01:56:14.960Z,71.54
2023-04-25T01:59:02.170Z,71.91
2023-04-25T02:02:04.325Z,71.86
2023-04-25T02:04:53.274Z,71.77
2023-04-25T02:07:42.979Z,71.42
2023-04-25T02:10:30.906Z,71.86
2023-04-25T02:13:34.173Z,72.00
2023-04-25T02:16:25.235Z,71.82
2023-04-25T02:19:12.206Z,71.67
2023-04-25T02:21:59.196Z,71.73
2023-04-25T02:24:46.143Z,71.99
2023-04-25T02:27:33.042Z,71.89
2023-04-25T02:30:20.081Z,72.15
2023-04-25T02:33:07.594Z,72.32
2023-04-25T02:35:56.494Z,72.01
2023-04-25T02:38:43.334Z,72.64
2023-04-25T02:41:30.530Z,72.25
2023-04-25T02:44:17.510Z,72.27
2023-04-25T02:47:05.948Z,72.88
2023-04-25T02:49:52.956Z,72.64
2023-04-25T02:52:39.891Z,72.22
2023-04-25T02:55:34.854Z,73.24
2023-04-25T02:58:25.409Z,73.13
2023-04-25T03:01:14.028Z,73.11
2023-04-25T03:04:01.386Z,72.83
2023-04-25T03:06:48.444Z,73.32
2023-04-25T03:09:35.432Z,73.38
2023-04-25T03:12:23.004Z,73.19
2023-04-25T03:15:10.617Z,72.72
2023-04-25T03:17:57.577Z,72.86
2023-04-25T03:20:44.795Z,73.31
2023-04-25T03:23:31.729Z,72.92
2023-04-25T03:26:18.810Z,73.60
2023-04-25T03:29:05.753Z,73.13
2023-04-25T03:31:54.017Z,73.37
2023-04-25T03:34:40.859Z,73.24
2023-04-25T03:37:28.208Z,73.87
2023-04-25T03:40:15.174Z,73.38
2023-04-25T03:43:29.072Z,73.44
2023-04-25T03:46:22.237Z,74.13
2023-04-25T03:49:09.934Z,73.91
2023-04-25T03:52:14.008Z,73.61
2023-04-25T03:55:01.770Z,74.20
2023-04-25T03:57:48.932Z,74.29
2023-04-25T04:00:36.859Z,74.07
2023-04-25T04:03:24.040Z,74.35
2023-04-25T04:06:11.940Z,74.53
2023-04-25T04:09:05.044Z,74.63
2023-04-25T04:11:56.929Z,74.92
2023-04-25T04:14:44.018Z,74.19
2023-04-25T04:17:31.392Z,74.59
2023-04-25T04:20:19.019Z,74.67
2023-04-25T04:23:05.949Z,74.85
2023-04-25T04:25:52.750Z,74.25
2023-04-25T04:28:52.441Z,75.07
2023-04-25T04:32:05.361Z,75.16
2023-04-25T04:34:53.600Z,74.45
2023-04-25T04:37:42.090Z,75.08
2023-04-25T04:40:32.363Z,75.47
2023-04-25T04:43:37.762Z,74.78
2023-04-25T04:46:27.647Z,75.32
2023-04-25T04:49:32.360Z,75.46
2023-04-25T04:52:37.911Z,75.24
2023-04-25T04:55:45.114Z,75.77
2023-04-25T04:58:43.707Z,75.19
2023-04-25T05:01:42.939Z,75.15
2023-04-25T05:04:45.399Z,75.70
2023-04-25T05:07:41.199Z,74.92
2023-04-25T05:10:41.198Z,75.71
2023-04-25T05:13:48.298Z,75.06
2023-04-25T05:16:55.700Z,75.15
2023-04-25T05:20:07.304Z,75.13
2023-04-25T05:23:12.859Z,75.66
2023-04-25T05:26:06.169Z,75.92
2023-04-25T05:29:07.669Z,75.15
2023-04-25T05:32:02.661Z,75.01
2023-04-25T05:34:50.802Z,75.21
2023-04-25T05:37:44.187Z,74.93
2023-04-25T05:40:33.805Z,75.88
2023-04-25T05:43:40.876Z,75.05
2023-04-25T05:46:41.291Z,75.17
2023-04-25T05:50:06.636Z,74.94
2023-04-25T05:53:12.101Z,75.20
2023-04-25T05:56:01.642Z,75.62
2023-04-25T05:58:49.677Z,74.73
2023-04-25T06:01:36.714Z,75.24
2023-04-25T06:04:24.238Z,74.87
2023-04-25T06:07:11.298Z,75.02
2023-04-25T06:09:58.513Z,75.24
2023-04-25T06:12:46.221Z,75.42
2023-04-25T06:15:35.669Z,75.91
2023-04-25T06:18:22.797Z,75.46
2023-04-25T06:21:10.210Z,75.01
2023-04-25T06:23:57.687Z,75.84
2023-04-25T06:26:44.775Z,75.85
2023-04-25T06:29:32.035Z,76.16
2023-04-25T06:32:19.142Z,74.88
2023-04-25T06:35:06.075Z,75.73
2023-04-25T06:37:54.264Z,75.48
2023-04-25T06:40:43.426Z,74.81
2023-04-25T06:43:31.695Z,75.18
2023-04-25T06:46:36.855Z,75.11
2023-04-25T06:49:24.928Z,75.32
2023-04-25T06:52:12.119Z,75.71
2023-04-25T06:54:59.819Z,74.85
2023-04-25T06:58:02.395Z,75.18
2023-04-25T07:01:27.866Z,75.17
2023-04-25T07:04:15.682Z,75.08
2023-04-25T07:07:12.283Z,75.87
2023-04-25T11:59:17.757Z,81.47
2023-04-25T12:01:51.633Z,81.53
2023-04-25T12:04:26.253Z,81.81
2023-04-25T12:06:55.971Z,81.69
2023-04-25T12:09:53.784Z,81.88
2023-04-25T12:12:40.586Z,81.88
2023-04-25T12:15:32.018Z,82.46
2023-04-25T12:18:18.912Z,82.38
2023-04-25T12:21:06.092Z,82.62
2023-04-25T12:23:52.991Z,82.48
2023-04-25T12:26:40.245Z,82.51
2023-04-25T12:32:27.261Z,82.86
2023-04-25T12:35:14.221Z,83.09
2023-04-25T12:38:01.349Z,83.25
2023-04-25T12:40:48.126Z,82.72
2023-04-25T12:43:35.232Z,83.41
2023-04-25T12:46:22.461Z,83.45
2023-04-25T12:49:18.602Z,84.04
2023-04-25T12:52:06.266Z,84.07
2023-04-25T12:54:53.299Z,83.81
2023-04-25T12:57:40.133Z,84.00
2023-04-25T13:00:27.859Z,84.19
2023-04-25T13:03:15.009Z,84.04
2023-04-25T13:06:02.265Z,84.31
2023-04-25T13:08:49.855Z,84.51
2023-04-25T13:11:37.040Z,84.41
2023-04-25T13:14:23.928Z,84.69
2023-04-25T13:17:10.915Z,84.72
2023-04-25T13:19:57.696Z,84.93
2023-04-25T13:22:44.817Z,85.16
2023-04-25T13:25:31.685Z,85.29
2023-04-25T13:28:18.736Z,85.80
2023-04-25T13:31:07.052Z,85.35
2023-04-25T13:33:54.066Z,85.58
2023-04-25T13:36:41.223Z,85.32
2023-04-25T13:39:28.154Z,85.49
2023-04-25T13:42:15.115Z,85.77
2023-04-25T13:45:02.009Z,85.89
2023-04-25T13:47:49.186Z,86.08
2023-04-25T13:50:36.213Z,86.17
2023-04-25T13:53:23.140Z,85.98
2023-04-25T13:56:11.087Z,85.82
2023-04-25T13:58:58.509Z,86.16
2023-04-25T14:01:45.577Z,86.74
2023-04-25T14:04:32.781Z,86.60
2023-04-25T14:07:19.910Z,86.34
2023-04-25T14:10:06.950Z,86.61
2023-04-25T14:12:54.266Z,86.37
2023-04-25T14:15:41.263Z,86.58
2023-04-25T14:18:28.281Z,87.33
2023-04-25T14:21:15.281Z,86.80
2023-04-25T14:24:02.300Z,86.61
2023-04-25T14:26:49.258Z,86.86
2023-04-25T14:29:36.481Z,87.10
2023-04-25T14:32:23.392Z,87.06
2023-04-25T14:35:10.320Z,87.27
2023-04-25T14:37:57.298Z,87.46
2023-04-25T14:40:44.285Z,87.19
2023-04-25T14:43:31.256Z,87.09
2023-04-25T14:46:18.254Z,87.82
2023-04-25T14:49:05.328Z,87.74
2023-04-25T14:51:52.290Z,87.27
2023-04-25T14:54:39.268Z,87.58
2023-04-25T14:57:26.194Z,87.65
2023-04-25T15:00:13.117Z,87.75
2023-04-25T15:03:00.291Z,88.04
2023-04-25T15:05:47.469Z,87.84
2023-04-25T15:08:34.376Z,88.04
2023-04-25T15:11:21.612Z,88.44
2023-04-25T15:14:08.556Z,88.55
2023-04-25T15:16:55.586Z,88.89
2023-04-25T15:19:42.543Z,89.66
2023-04-25T15:22:29.587Z,89.77
2023-04-25T15:25:16.554Z,90.65
2023-04-25T15:28:03.391Z,90.85
2023-04-25T15:30:50.397Z,90.95
2023-04-25T15:33:37.225Z,91.26
2023-04-25T15:36:24.411Z,91.80
2023-04-25T15:39:11.301Z,91.80
2023-04-25T15:41:59.933Z,92.44
2023-04-25T15:44:46.861Z,92.59
2023-04-25T15:47:33.836Z,92.78
2023-04-25T15:50:20.758Z,93.16
2023-04-25T15:53:09.505Z,93.19
2023-04-25T15:55:56.335Z,93.60
2023-04-25T15:58:43.534Z,93.88
2023-04-25T16:01:31.437Z,93.80
2023-04-25T16:04:19.096Z,94.36
2023-04-25T16:07:06.217Z,94.50
2023-04-25T16:09:53.310Z,94.59
2023-04-25T16:12:40.235Z,94.31
2023-04-25T16:15:27.653Z,94.77
2023-04-25T16:18:14.620Z,94.65
2023-04-25T16:21:01.640Z,95.14
2023-04-25T16:23:48.701Z,95.66
2023-04-25T16:26:35.727Z,95.50
2023-04-25T16:29:25.637Z,95.55
2023-04-25T16:32:12.771Z,95.71
2023-04-25T16:34:59.741Z,95.53
2023-04-25T16:37:46.922Z,95.80
2023-04-25T16:40:33.961Z,96.26
2023-04-25T16:43:20.814Z,96.13
2023-04-25T16:46:07.682Z,96.48
2023-04-25T16:48:54.620Z,97.04
2023-04-25T16:51:41.566Z,96.59
2023-04-25T16:54:28.453Z,97.12
2023-04-25T16:57:15.289Z,96.77
2023-04-25T17:00:02.083Z,97.44
2023-04-25T17:02:49.160Z,97.04
2023-04-25T17:05:36.136Z,97.43
2023-04-25T17:08:23.476Z,97.40
2023-04-25T17:11:10.736Z,97.33
2023-04-25T17:13:57.867Z,97.70
2023-04-25T17:16:55.199Z,97.68
2023-04-25T17:19:42.135Z,98.05
2023-04-25T17:22:29.344Z,97.79
2023-04-25T17:25:16.276Z,98.10
2023-04-25T17:28:03.277Z,98.44
2023-04-25T17:30:50.521Z,98.59
2023-04-25T17:33:37.396Z,98.71
2023-04-25T17:36:24.537Z,98.71
2023-04-25T17:39:11.433Z,98.71
2023-04-25T17:42:00.761Z,98.29
2023-04-25T17:44:47.975Z,99.34
2023-04-25T17:47:34.929Z,99.22
2023-04-25T17:50:22.125Z,99.34
2023-04-25T17:53:09.364Z,99.03
2023-04-25T17:55:56.332Z,98.94
2023-04-25T17:58:43.178Z,99.40
2023-04-25T18:01:30.198Z,99.53
2023-04-25T18:04:17.133Z,99.45
2023-04-25T18:07:04.039Z,99.19
2023-04-25T18:09:51.161Z,99.37
2023-04-25T18:12:38.200Z,99.24
2023-04-25T18:15:25.623Z,99.74
2023-04-25T18:18:12.587Z,100.00
2023-04-25T18:20:59.678Z,99.57
2023-04-25T18:23:47.047Z,99.73
2023-04-25T18:26:34.234Z,99.94
2023-04-25T18:29:32.235Z,100.00
2023-04-25T18:32:20.309Z,99.79
2023-04-25T18:35:07.247Z,99.91
2023-04-25T18:37:54.249Z,100.00
2023-04-25T18:40:50.279Z,100.00
2023-04-25T18:43:43.725Z,100.00
2023-04-25T18:46:31.280Z,100.00
2023-04-25T18:49:18.768Z,100.00
2023-04-25T18:52:05.656Z,100.00
2023-04-25T18:54:52.568Z,100.00
2023-04-25T18:57:39.616Z,100.00
2023-04-25T19:00:27.414Z,100.00
2023-04-25T19:03:14.507Z,100.00
2023-04-25T19:06:01.425Z,100.00
2023-04-25T19:08:48.879Z,100.00
2023-04-25T19:11:36.638Z,100.00
2023-04-25T19:14:23.709Z,100.00
2023-04-25T19:17:10.608Z,100.00
2023-04-25T19:19:57.719Z,100.00
2023-04-25T19:22:44.555Z,100.00
2023-04-25T19:25:31.512Z,100.00
2023-04-25T19:28:18.496Z,100.00
2023-04-25T19:31:05.495Z,100.00
2023-04-25T19:33:52.892Z,100.00
2023-04-25T19:36:40.115Z,100.00
2023-04-25T19:39:27.735Z,100.00
2023-04-25T19:42:14.604Z,100.00
2023-04-25T19:45:01.595Z,100.00
2023-04-25T19:47:48.446Z,100.00
2023-04-25T19:50:35.443Z,100.00
2023-04-25T19:53:22.337Z,100.00
2023-04-25T19:56:09.350Z,100.00
2023-04-25T19:58:56.213Z,100.00
2023-04-25T20:01:43.078Z,100.00
2023-04-25T20:04:30.021Z,100.00
2023-04-25T20:07:17.154Z,100.00
2023-04-25T20:10:03.948Z,100.00
2023-04-25T20:12:50.879Z,100.00
2023-04-25T20:15:38.713Z,100.00
2023-04-25T20:18:25.615Z,100.00
2023-04-25T20:21:14.430Z,100.00
2023-04-25T20:24:01.370Z,100.00
2023-04-25T20:26:48.974Z,100.00
2023-04-25T20:29:35.963Z,100.00
2023-04-25T20:32:23.001Z,100.00
2023-04-25T20:35:09.890Z,100.00
2023-04-25T20:37:57.290Z,100.00
2023-04-25T20:40:44.289Z,100.00
2023-04-25T20:43:31.117Z,100.00
2023-04-25T20:46:19.793Z,100.00
2023-04-25T20:49:06.828Z,100.00
2023-04-25T20:51:54.936Z,100.00
2023-04-25T20:54:41.948Z,100.00
2023-04-25T20:57:28.944Z,100.00
2023-04-25T21:00:15.834Z,100.00
2023-04-25T21:03:02.972Z,100.00
2023-04-25T21:05:49.993Z,100.00
2023-04-25T21:08:36.908Z,100.00
2023-04-25T21:11:23.866Z,100.00
2023-04-25T21:14:10.722Z,100.00
2023-04-25T21:16:57.714Z,100.00
2023-04-25T21:19:44.677Z,100.00
2023-04-25T21:22:31.683Z,100.00
2023-04-25T21:25:18.627Z,100.00
2023-04-25T21:28:09.154Z,100.00
2023-04-25T21:30:56.285Z,100.00
2023-04-25T21:33:43.209Z,100.00
2023-04-25T21:36:30.030Z,100.00
2023-04-25T21:39:17.050Z,100.00
2023-04-25T21:42:04.083Z,100.00
2023-04-25T21:44:51.562Z,100.00
2023-04-25T21:47:38.615Z,100.00
2023-04-25T21:50:25.775Z,100.00
2023-04-25T21:53:12.749Z,100.00
2023-04-25T21:55:59.787Z,100.00
2023-04-25T21:58:46.742Z,100.00
2023-04-25T22:01:33.706Z,100.00
2023-04-25T22:04:20.883Z,100.00
2023-04-25T22:07:07.985Z,100.00
2023-04-25T22:09:55.929Z,100.00
2023-04-25T22:12:42.954Z,100.00
2023-04-25T22:15:30.581Z,100.00
2023-04-25T22:18:21.145Z,100.00
2023-04-25T22:21:08.077Z,100.00
2023-04-25T22:23:54.985Z,100.00
2023-04-25T22:26:41.993Z,100.00
2023-04-25T22:29:29.535Z,100.00
2023-04-25T22:32:16.515Z,100.00
2023-04-25T22:35:03.393Z,100.00
2023-04-25T22:37:50.465Z,100.00
2023-04-25T22:40:37.341Z,100.00
2023-04-25T22:43:24.316Z,100.00
2023-04-25T22:46:11.245Z,100.00
2023-04-25T22:48:58.372Z,100.00
2023-04-25T22:51:45.189Z,100.00
2023-04-25T22:54:32.271Z,100.00
2023-04-25T22:57:19.191Z,100.00
2023-04-25T23:00:06.120Z,100.00
2023-04-25T23:02:53.066Z,100.00
2023-04-25T23:05:40.598Z,100.00
2023-04-25T23:08:27.460Z,100.00
2023-04-25T23:11:14.971Z,100.00
2023-04-25T23:14:01.969Z,100.00
2023-04-25T23:16:49.017Z,100.00
2023-04-25T23:19:35.989Z,100.00
2023-04-25T23:22:23.049Z,100.00
2023-04-25T23:25:10.166Z,100.00
2023-04-25T23:27:57.386Z,100.00
2023-04-25T23:30:44.349Z,100.00
2023-04-25T23:33:31.318Z,100.00
2023-04-25T23:36:18.206Z,100.00
2023-04-25T23:39:05.154Z,100.00
2023-04-25T23:41:51.998Z,100.00
2023-04-25T23:44:39.133Z,100.00
2023-04-25T23:47:26.023Z,100.00
2023-04-25T23:50:13.138Z,100.00
2023-04-25T23:53:00.138Z,100.00
2023-04-25T23:55:47.734Z,100.00
2023-04-25T23:58:34.667Z,100.00
